sensor_id;sensor_type;location;lat;lon;timestamp;temperature;humidity
20528;DHT22;23612;50.894;10.700;2023-12-20T00:02:00;4.30;99.90
20528;DHT22;23612;50.894;10.700;2023-12-20T00:04:25;4.30;99.90
20528;DHT22;23612;50.894;10.700;2023-12-20T00:06:51;4.30;99.90
20528;DHT22;23612;50.894;10.700;2023-12-20T00:09:17;4.20;99.90
20528;DHT22;23612;50.894;10.700;2023-12-20T00:11:42;4.20;99.90
20528;DHT22;23612;50.894;10.700;2023-12-20T00:14:08;4.20;99.90
20528;DHT22;23612;50.894;10.700;2023-12-20T00:16:33;4.20;99.90
20528;DHT22;23612;50.894;10.700;2023-12-20T00:18:59;4.20;99.90
20528;DHT22;23612;50.894;10.700;2023-12-20T00:21:24;4.30;99.90
20528;DHT22;23612;50.894;10.700;2023-12-20T00:23:50;4.40;99.90
20528;DHT22;23612;50.894;10.700;2023-12-20T00:26:15;4.40;99.90
20528;DHT22;23612;50.894;10.700;2023-12-20T00:28:41;4.40;99.90
20528;DHT22;23612;50.894;10.700;2023-12-20T00:31:08;4.40;99.90
20528;DHT22;23612;50.894;10.700;2023-12-20T00:33:33;4.40;99.90
20528;DHT22;23612;50.894;10.700;2023-12-20T00:35:58;4.40;99.90
20528;DHT22;23612;50.894;10.700;2023-12-20T00:38:24;4.50;99.90
20528;DHT22;23612;50.894;10.700;2023-12-20T00:40:50;4.40;99.90
20528;DHT22;23612;50.894;10.700;2023-12-20T00:43:15;4.50;99.90
20528;DHT22;23612;50.894;10.700;2023-12-20T00:45:41;4.50;99.90
20528;DHT22;23612;50.894;10.700;2023-12-20T00:48:06;4.50;99.90
20528;DHT22;23612;50.894;10.700;2023-12-20T00:50:32;4.50;99.90
20528;DHT22;23612;50.894;10.700;2023-12-20T00:52:57;4.60;99.90
20528;DHT22;23612;50.894;10.700;2023-12-20T00:55:23;4.50;99.90
20528;DHT22;23612;50.894;10.700;2023-12-20T00:57:48;4.50;99.90
20528;DHT22;23612;50.894;10.700;2023-12-20T01:00:14;4.60;99.90
20528;DHT22;23612;50.894;10.700;2023-12-20T01:02:40;4.60;99.90
20528;DHT22;23612;50.894;10.700;2023-12-20T01:05:06;4.60;99.90
20528;DHT22;23612;50.894;10.700;2023-12-20T01:07:32;4.60;99.90
20528;DHT22;23612;50.894;10.700;2023-12-20T01:09:58;4.60;99.90
20528;DHT22;23612;50.894;10.700;2023-12-20T01:12:23;4.60;99.90
20528;DHT22;23612;50.894;10.700;2023-12-20T01:14:49;4.60;99.90
20528;DHT22;23612;50.894;10.700;2023-12-20T01:17:14;4.50;99.90
20528;DHT22;23612;50.894;10.700;2023-12-20T01:19:40;4.60;99.90
20528;DHT22;23612;50.894;10.700;2023-12-20T01:22:05;4.60;99.90
20528;DHT22;23612;50.894;10.700;2023-12-20T01:24:30;4.60;99.90
20528;DHT22;23612;50.894;10.700;2023-12-20T01:26:56;4.60;99.90
20528;DHT22;23612;50.894;10.700;2023-12-20T01:29:21;4.60;99.90
20528;DHT22;23612;50.894;10.700;2023-12-20T01:31:47;4.60;99.90
20528;DHT22;23612;50.894;10.700;2023-12-20T01:34:12;4.60;99.90
20528;DHT22;23612;50.894;10.700;2023-12-20T01:36:38;4.60;99.90
20528;DHT22;23612;50.894;10.700;2023-12-20T01:39:03;4.60;99.90
20528;DHT22;23612;50.894;10.700;2023-12-20T01:41:29;4.60;99.90
20528;DHT22;23612;50.894;10.700;2023-12-20T01:43:54;4.70;99.90
20528;DHT22;23612;50.894;10.700;2023-12-20T01:46:20;4.60;99.90
20528;DHT22;23612;50.894;10.700;2023-12-20T01:48:47;4.70;99.90
20528;DHT22;23612;50.894;10.700;2023-12-20T01:51:12;4.70;99.90
20528;DHT22;23612;50.894;10.700;2023-12-20T01:53:39;4.70;99.90
20528;DHT22;23612;50.894;10.700;2023-12-20T01:56:05;4.70;99.90
20528;DHT22;23612;50.894;10.700;2023-12-20T01:58:31;4.70;99.90
20528;DHT22;23612;50.894;10.700;2023-12-20T02:00:57;4.70;99.90
20528;DHT22;23612;50.894;10.700;2023-12-20T02:03:23;4.70;99.90
20528;DHT22;23612;50.894;10.700;2023-12-20T02:05:50;4.70;99.90
20528;DHT22;23612;50.894;10.700;2023-12-20T02:08:15;4.70;99.90
20528;DHT22;23612;50.894;10.700;2023-12-20T02:10:41;4.70;99.90
20528;DHT22;23612;50.894;10.700;2023-12-20T02:13:07;4.60;99.90
20528;DHT22;23612;50.894;10.700;2023-12-20T02:15:32;4.60;99.90
20528;DHT22;23612;50.894;10.700;2023-12-20T02:17:58;4.60;99.90
20528;DHT22;23612;50.894;10.700;2023-12-20T02:20:24;4.60;99.90
20528;DHT22;23612;50.894;10.700;2023-12-20T02:22:49;4.50;99.90
20528;DHT22;23612;50.894;10.700;2023-12-20T02:25:15;4.50;99.90
20528;DHT22;23612;50.894;10.700;2023-12-20T02:27:41;4.50;99.90
20528;DHT22;23612;50.894;10.700;2023-12-20T02:30:08;4.50;99.90
20528;DHT22;23612;50.894;10.700;2023-12-20T02:32:34;4.40;99.90
20528;DHT22;23612;50.894;10.700;2023-12-20T02:34:59;4.40;99.90
20528;DHT22;23612;50.894;10.700;2023-12-20T02:37:25;4.40;99.90
20528;DHT22;23612;50.894;10.700;2023-12-20T02:39:50;4.40;99.90
20528;DHT22;23612;50.894;10.700;2023-12-20T02:42:16;4.40;99.90
20528;DHT22;23612;50.894;10.700;2023-12-20T02:44:41;4.30;99.90
20528;DHT22;23612;50.894;10.700;2023-12-20T02:47:07;4.30;99.90
20528;DHT22;23612;50.894;10.700;2023-12-20T02:49:32;4.30;99.90
20528;DHT22;23612;50.894;10.700;2023-12-20T02:51:57;4.30;99.90
20528;DHT22;23612;50.894;10.700;2023-12-20T02:54:23;4.30;99.90
20528;DHT22;23612;50.894;10.700;2023-12-20T02:56:48;4.30;99.90
20528;DHT22;23612;50.894;10.700;2023-12-20T02:59:14;4.20;99.90
20528;DHT22;23612;50.894;10.700;2023-12-20T03:01:43;4.20;99.90
20528;DHT22;23612;50.894;10.700;2023-12-20T03:04:09;4.20;99.90
20528;DHT22;23612;50.894;10.700;2023-12-20T03:06:35;4.20;99.90
20528;DHT22;23612;50.894;10.700;2023-12-20T03:09:00;4.20;99.90
20528;DHT22;23612;50.894;10.700;2023-12-20T03:11:29;4.20;99.90
20528;DHT22;23612;50.894;10.700;2023-12-20T03:13:55;4.20;99.90
20528;DHT22;23612;50.894;10.700;2023-12-20T03:16:20;4.20;99.90
20528;DHT22;23612;50.894;10.700;2023-12-20T03:18:46;4.30;99.90
20528;DHT22;23612;50.894;10.700;2023-12-20T03:21:11;4.30;99.90
20528;DHT22;23612;50.894;10.700;2023-12-20T03:23:37;4.30;99.90
20528;DHT22;23612;50.894;10.700;2023-12-20T03:26:03;4.40;99.90
20528;DHT22;23612;50.894;10.700;2023-12-20T03:28:29;4.40;99.90
20528;DHT22;23612;50.894;10.700;2023-12-20T03:30:54;4.30;99.90
20528;DHT22;23612;50.894;10.700;2023-12-20T03:33:20;4.40;99.90
20528;DHT22;23612;50.894;10.700;2023-12-20T03:35:45;4.40;99.90
20528;DHT22;23612;50.894;10.700;2023-12-20T03:38:11;4.40;99.90
20528;DHT22;23612;50.894;10.700;2023-12-20T03:40:36;4.40;99.90
20528;DHT22;23612;50.894;10.700;2023-12-20T03:43:02;4.50;99.90
20528;DHT22;23612;50.894;10.700;2023-12-20T03:45:27;4.50;99.90
20528;DHT22;23612;50.894;10.700;2023-12-20T03:47:53;4.50;99.90
20528;DHT22;23612;50.894;10.700;2023-12-20T03:50:22;4.50;99.90
20528;DHT22;23612;50.894;10.700;2023-12-20T03:52:47;4.50;99.90
20528;DHT22;23612;50.894;10.700;2023-12-20T03:55:13;4.60;99.90
20528;DHT22;23612;50.894;10.700;2023-12-20T03:57:38;4.60;99.90
20528;DHT22;23612;50.894;10.700;2023-12-20T04:00:05;4.60;99.90
20528;DHT22;23612;50.894;10.700;2023-12-20T04:02:30;4.70;99.90
20528;DHT22;23612;50.894;10.700;2023-12-20T04:04:56;4.70;99.90
20528;DHT22;23612;50.894;10.700;2023-12-20T04:07:21;4.70;99.90
20528;DHT22;23612;50.894;10.700;2023-12-20T04:09:47;4.80;99.90
20528;DHT22;23612;50.894;10.700;2023-12-20T04:12:13;4.90;99.90
20528;DHT22;23612;50.894;10.700;2023-12-20T04:14:38;4.90;99.90
20528;DHT22;23612;50.894;10.700;2023-12-20T04:17:04;5.00;99.90
20528;DHT22;23612;50.894;10.700;2023-12-20T04:19:29;5.00;99.90
20528;DHT22;23612;50.894;10.700;2023-12-20T04:21:55;5.00;99.90
20528;DHT22;23612;50.894;10.700;2023-12-20T04:24:20;5.00;99.90
20528;DHT22;23612;50.894;10.700;2023-12-20T04:26:46;5.00;99.90
20528;DHT22;23612;50.894;10.700;2023-12-20T04:29:12;5.10;99.90
20528;DHT22;23612;50.894;10.700;2023-12-20T04:31:37;5.10;99.90
20528;DHT22;23612;50.894;10.700;2023-12-20T04:34:03;5.20;99.90
20528;DHT22;23612;50.894;10.700;2023-12-20T04:36:28;5.10;99.90
20528;DHT22;23612;50.894;10.700;2023-12-20T04:38:55;5.10;99.90
20528;DHT22;23612;50.894;10.700;2023-12-20T04:41:20;5.10;99.90
20528;DHT22;23612;50.894;10.700;2023-12-20T04:43:46;4.90;99.90
20528;DHT22;23612;50.894;10.700;2023-12-20T04:46:11;4.90;99.90
20528;DHT22;23612;50.894;10.700;2023-12-20T04:48:37;4.90;99.90
20528;DHT22;23612;50.894;10.700;2023-12-20T04:51:02;4.90;99.90
20528;DHT22;23612;50.894;10.700;2023-12-20T04:53:28;4.90;99.90
20528;DHT22;23612;50.894;10.700;2023-12-20T04:55:53;5.00;99.90
20528;DHT22;23612;50.894;10.700;2023-12-20T04:58:19;5.00;99.90
20528;DHT22;23612;50.894;10.700;2023-12-20T05:00:44;5.00;99.90
20528;DHT22;23612;50.894;10.700;2023-12-20T05:03:10;5.10;99.90
20528;DHT22;23612;50.894;10.700;2023-12-20T05:05:35;5.10;99.90
20528;DHT22;23612;50.894;10.700;2023-12-20T05:08:01;5.10;99.90
20528;DHT22;23612;50.894;10.700;2023-12-20T05:10:27;5.10;99.90
20528;DHT22;23612;50.894;10.700;2023-12-20T05:12:53;5.10;99.90
20528;DHT22;23612;50.894;10.700;2023-12-20T05:15:18;5.20;99.90
20528;DHT22;23612;50.894;10.700;2023-12-20T05:17:44;5.20;99.90
20528;DHT22;23612;50.894;10.700;2023-12-20T05:20:09;5.20;99.90
20528;DHT22;23612;50.894;10.700;2023-12-20T05:22:35;5.20;99.90
20528;DHT22;23612;50.894;10.700;2023-12-20T05:25:01;5.20;99.90
20528;DHT22;23612;50.894;10.700;2023-12-20T05:27:26;5.30;99.90
20528;DHT22;23612;50.894;10.700;2023-12-20T05:29:52;5.20;99.90
20528;DHT22;23612;50.894;10.700;2023-12-20T05:32:17;5.20;99.90
20528;DHT22;23612;50.894;10.700;2023-12-20T05:34:43;5.20;99.90
20528;DHT22;23612;50.894;10.700;2023-12-20T05:37:08;5.20;99.90
20528;DHT22;23612;50.894;10.700;2023-12-20T05:39:34;5.10;99.90
20528;DHT22;23612;50.894;10.700;2023-12-20T05:41:59;5.10;99.90
20528;DHT22;23612;50.894;10.700;2023-12-20T05:44:25;5.20;99.90
20528;DHT22;23612;50.894;10.700;2023-12-20T05:46:50;5.20;99.90
20528;DHT22;23612;50.894;10.700;2023-12-20T05:49:16;5.20;99.90
20528;DHT22;23612;50.894;10.700;2023-12-20T05:51:41;5.10;99.90
20528;DHT22;23612;50.894;10.700;2023-12-20T05:54:09;5.10;99.90
20528;DHT22;23612;50.894;10.700;2023-12-20T05:56:34;5.10;99.90
20528;DHT22;23612;50.894;10.700;2023-12-20T05:58:59;5.10;99.90
20528;DHT22;23612;50.894;10.700;2023-12-20T06:01:25;5.00;99.90
20528;DHT22;23612;50.894;10.700;2023-12-20T06:03:50;5.00;99.90
20528;DHT22;23612;50.894;10.700;2023-12-20T06:06:16;4.90;99.90
20528;DHT22;23612;50.894;10.700;2023-12-20T06:08:43;4.80;99.90
20528;DHT22;23612;50.894;10.700;2023-12-20T06:11:08;4.70;99.90
20528;DHT22;23612;50.894;10.700;2023-12-20T06:13:34;4.70;99.90
20528;DHT22;23612;50.894;10.700;2023-12-20T06:16:00;4.60;99.90
20528;DHT22;23612;50.894;10.700;2023-12-20T06:18:26;4.50;99.90
20528;DHT22;23612;50.894;10.700;2023-12-20T06:20:51;4.50;99.90
20528;DHT22;23612;50.894;10.700;2023-12-20T06:23:17;4.40;99.90
20528;DHT22;23612;50.894;10.700;2023-12-20T06:25:43;4.40;99.90
20528;DHT22;23612;50.894;10.700;2023-12-20T06:28:09;4.50;99.90
20528;DHT22;23612;50.894;10.700;2023-12-20T06:30:35;4.50;99.90
20528;DHT22;23612;50.894;10.700;2023-12-20T06:33:01;4.60;99.90
20528;DHT22;23612;50.894;10.700;2023-12-20T06:35:27;4.60;99.90
20528;DHT22;23612;50.894;10.700;2023-12-20T06:37:52;4.70;99.90
20528;DHT22;23612;50.894;10.700;2023-12-20T06:40:18;4.70;99.90
20528;DHT22;23612;50.894;10.700;2023-12-20T06:42:44;4.60;99.90
20528;DHT22;23612;50.894;10.700;2023-12-20T06:45:09;4.60;99.90
20528;DHT22;23612;50.894;10.700;2023-12-20T06:47:35;4.50;99.90
20528;DHT22;23612;50.894;10.700;2023-12-20T06:50:01;4.40;99.90
20528;DHT22;23612;50.894;10.700;2023-12-20T06:52:26;4.40;99.90
20528;DHT22;23612;50.894;10.700;2023-12-20T06:54:52;4.30;99.90
20528;DHT22;23612;50.894;10.700;2023-12-20T06:57:17;4.20;99.90
20528;DHT22;23612;50.894;10.700;2023-12-20T06:59:45;4.10;99.90
20528;DHT22;23612;50.894;10.700;2023-12-20T07:02:10;4.10;99.90
20528;DHT22;23612;50.894;10.700;2023-12-20T07:04:39;4.00;99.90
20528;DHT22;23612;50.894;10.700;2023-12-20T07:07:05;4.00;99.90
20528;DHT22;23612;50.894;10.700;2023-12-20T07:09:30;3.90;99.90
20528;DHT22;23612;50.894;10.700;2023-12-20T07:11:56;3.90;99.90
20528;DHT22;23612;50.894;10.700;2023-12-20T07:14:21;3.90;99.90
20528;DHT22;23612;50.894;10.700;2023-12-20T07:16:47;3.80;99.90
20528;DHT22;23612;50.894;10.700;2023-12-20T07:19:12;3.80;99.90
20528;DHT22;23612;50.894;10.700;2023-12-20T07:21:38;3.80;99.90
20528;DHT22;23612;50.894;10.700;2023-12-20T07:24:04;3.80;99.90
20528;DHT22;23612;50.894;10.700;2023-12-20T07:26:29;3.80;99.90
20528;DHT22;23612;50.894;10.700;2023-12-20T07:28:55;3.90;99.90
20528;DHT22;23612;50.894;10.700;2023-12-20T07:31:20;3.90;99.90
20528;DHT22;23612;50.894;10.700;2023-12-20T07:33:45;3.90;99.90
20528;DHT22;23612;50.894;10.700;2023-12-20T07:36:12;3.90;99.90
20528;DHT22;23612;50.894;10.700;2023-12-20T07:38:37;3.90;99.90
20528;DHT22;23612;50.894;10.700;2023-12-20T07:41:03;4.00;99.90
20528;DHT22;23612;50.894;10.700;2023-12-20T07:43:28;4.00;99.90
20528;DHT22;23612;50.894;10.700;2023-12-20T07:45:54;4.00;99.90
20528;DHT22;23612;50.894;10.700;2023-12-20T07:48:19;4.00;99.90
20528;DHT22;23612;50.894;10.700;2023-12-20T07:50:45;4.00;99.90
20528;DHT22;23612;50.894;10.700;2023-12-20T07:53:10;4.10;99.90
20528;DHT22;23612;50.894;10.700;2023-12-20T07:55:36;4.10;99.90
20528;DHT22;23612;50.894;10.700;2023-12-20T07:58:01;4.10;99.90
20528;DHT22;23612;50.894;10.700;2023-12-20T08:00:27;4.20;99.90
20528;DHT22;23612;50.894;10.700;2023-12-20T08:02:53;4.30;99.90
20528;DHT22;23612;50.894;10.700;2023-12-20T08:05:18;4.30;99.90
20528;DHT22;23612;50.894;10.700;2023-12-20T08:07:44;4.40;99.90
20528;DHT22;23612;50.894;10.700;2023-12-20T08:10:10;4.40;99.90
20528;DHT22;23612;50.894;10.700;2023-12-20T08:12:35;4.50;99.90
20528;DHT22;23612;50.894;10.700;2023-12-20T08:15:01;4.50;99.90
20528;DHT22;23612;50.894;10.700;2023-12-20T08:17:27;4.50;99.90
20528;DHT22;23612;50.894;10.700;2023-12-20T08:19:52;4.50;99.90
20528;DHT22;23612;50.894;10.700;2023-12-20T08:22:18;4.50;99.90
20528;DHT22;23612;50.894;10.700;2023-12-20T08:24:43;4.50;99.90
20528;DHT22;23612;50.894;10.700;2023-12-20T08:27:09;4.60;99.90
20528;DHT22;23612;50.894;10.700;2023-12-20T08:29:35;4.60;99.90
20528;DHT22;23612;50.894;10.700;2023-12-20T08:32:01;4.70;99.90
20528;DHT22;23612;50.894;10.700;2023-12-20T08:34:26;4.70;99.90
20528;DHT22;23612;50.894;10.700;2023-12-20T08:36:52;4.70;99.90
20528;DHT22;23612;50.894;10.700;2023-12-20T08:39:17;4.70;99.90
20528;DHT22;23612;50.894;10.700;2023-12-20T08:41:43;4.60;99.90
20528;DHT22;23612;50.894;10.700;2023-12-20T08:44:09;4.60;99.90
20528;DHT22;23612;50.894;10.700;2023-12-20T08:46:35;4.60;99.90
20528;DHT22;23612;50.894;10.700;2023-12-20T08:49:01;4.60;99.90
20528;DHT22;23612;50.894;10.700;2023-12-20T08:51:26;4.60;99.90
20528;DHT22;23612;50.894;10.700;2023-12-20T08:53:52;4.70;99.90
20528;DHT22;23612;50.894;10.700;2023-12-20T08:56:18;4.90;99.90
20528;DHT22;23612;50.894;10.700;2023-12-20T08:58:45;5.10;99.90
20528;DHT22;23612;50.894;10.700;2023-12-20T09:01:11;5.20;99.90
20528;DHT22;23612;50.894;10.700;2023-12-20T09:03:36;5.30;99.90
20528;DHT22;23612;50.894;10.700;2023-12-20T09:06:02;5.20;99.90
20528;DHT22;23612;50.894;10.700;2023-12-20T09:08:28;5.10;99.90
20528;DHT22;23612;50.894;10.700;2023-12-20T09:10:53;5.10;99.90
20528;DHT22;23612;50.894;10.700;2023-12-20T09:13:19;5.10;99.90
20528;DHT22;23612;50.894;10.700;2023-12-20T09:15:45;5.10;99.90
20528;DHT22;23612;50.894;10.700;2023-12-20T09:18:11;5.10;99.90
20528;DHT22;23612;50.894;10.700;2023-12-20T09:20:36;5.20;99.90
20528;DHT22;23612;50.894;10.700;2023-12-20T09:23:02;5.30;99.90
20528;DHT22;23612;50.894;10.700;2023-12-20T09:25:28;5.30;99.90
20528;DHT22;23612;50.894;10.700;2023-12-20T09:27:54;5.30;99.90
20528;DHT22;23612;50.894;10.700;2023-12-20T09:30:19;5.40;99.90
20528;DHT22;23612;50.894;10.700;2023-12-20T09:32:45;5.50;99.90
20528;DHT22;23612;50.894;10.700;2023-12-20T09:35:11;5.50;99.90
20528;DHT22;23612;50.894;10.700;2023-12-20T09:37:36;5.60;99.90
20528;DHT22;23612;50.894;10.700;2023-12-20T09:40:03;5.50;99.90
20528;DHT22;23612;50.894;10.700;2023-12-20T09:42:38;5.50;99.90
20528;DHT22;23612;50.894;10.700;2023-12-20T09:45:08;5.50;99.90
20528;DHT22;23612;50.894;10.700;2023-12-20T09:47:35;5.50;99.90
20528;DHT22;23612;50.894;10.700;2023-12-20T09:50:02;5.50;99.90
20528;DHT22;23612;50.894;10.700;2023-12-20T09:52:28;5.50;99.90
20528;DHT22;23612;50.894;10.700;2023-12-20T09:54:55;5.50;99.90
20528;DHT22;23612;50.894;10.700;2023-12-20T09:57:22;5.40;99.90
20528;DHT22;23612;50.894;10.700;2023-12-20T09:59:47;5.60;99.90
20528;DHT22;23612;50.894;10.700;2023-12-20T10:02:14;5.60;99.90
20528;DHT22;23612;50.894;10.700;2023-12-20T10:04:46;5.60;99.90
20528;DHT22;23612;50.894;10.700;2023-12-20T10:07:12;5.70;99.90
20528;DHT22;23612;50.894;10.700;2023-12-20T10:09:38;5.70;99.90
20528;DHT22;23612;50.894;10.700;2023-12-20T10:12:04;5.80;99.90
20528;DHT22;23612;50.894;10.700;2023-12-20T10:14:32;5.80;99.90
20528;DHT22;23612;50.894;10.700;2023-12-20T10:17:04;5.90;99.90
20528;DHT22;23612;50.894;10.700;2023-12-20T10:19:29;5.80;99.90
20528;DHT22;23612;50.894;10.700;2023-12-20T10:21:55;5.90;99.90
20528;DHT22;23612;50.894;10.700;2023-12-20T10:24:21;5.90;99.90
20528;DHT22;23612;50.894;10.700;2023-12-20T10:26:46;5.90;99.90
20528;DHT22;23612;50.894;10.700;2023-12-20T10:29:12;5.80;99.90
20528;DHT22;23612;50.894;10.700;2023-12-20T10:31:37;5.80;99.90
20528;DHT22;23612;50.894;10.700;2023-12-20T10:34:05;5.80;99.90
20528;DHT22;23612;50.894;10.700;2023-12-20T10:36:32;5.70;99.90
20528;DHT22;23612;50.894;10.700;2023-12-20T10:38:59;5.70;99.90
20528;DHT22;23612;50.894;10.700;2023-12-20T10:41:29;5.60;99.90
20528;DHT22;23612;50.894;10.700;2023-12-20T10:43:58;5.60;99.90
20528;DHT22;23612;50.894;10.700;2023-12-20T10:46:24;5.50;99.90
20528;DHT22;23612;50.894;10.700;2023-12-20T10:48:53;5.50;99.90
20528;DHT22;23612;50.894;10.700;2023-12-20T10:51:20;5.60;99.90
20528;DHT22;23612;50.894;10.700;2023-12-20T10:53:47;5.70;99.90
20528;DHT22;23612;50.894;10.700;2023-12-20T10:56:18;5.80;99.90
20528;DHT22;23612;50.894;10.700;2023-12-20T10:58:48;5.80;99.90
20528;DHT22;23612;50.894;10.700;2023-12-20T11:01:16;5.90;99.90
20528;DHT22;23612;50.894;10.700;2023-12-20T11:03:51;6.00;99.90
20528;DHT22;23612;50.894;10.700;2023-12-20T11:06:36;6.10;99.90
20528;DHT22;23612;50.894;10.700;2023-12-20T11:09:20;6.10;99.90
20528;DHT22;23612;50.894;10.700;2023-12-20T11:11:59;6.00;99.90
20528;DHT22;23612;50.894;10.700;2023-12-20T11:14:38;6.00;99.90
20528;DHT22;23612;50.894;10.700;2023-12-20T11:17:10;5.90;99.90
20528;DHT22;23612;50.894;10.700;2023-12-20T11:20:05;5.90;99.90
20528;DHT22;23612;50.894;10.700;2023-12-20T11:22:32;5.80;99.90
20528;DHT22;23612;50.894;10.700;2023-12-20T11:25:10;5.80;99.90
20528;DHT22;23612;50.894;10.700;2023-12-20T11:27:36;5.80;99.90
20528;DHT22;23612;50.894;10.700;2023-12-20T11:30:05;5.80;99.90
20528;DHT22;23612;50.894;10.700;2023-12-20T11:32:34;5.80;99.90
20528;DHT22;23612;50.894;10.700;2023-12-20T11:35:20;5.90;99.90
20528;DHT22;23612;50.894;10.700;2023-12-20T11:37:46;6.10;99.90
20528;DHT22;23612;50.894;10.700;2023-12-20T11:40:17;6.30;99.90
20528;DHT22;23612;50.894;10.700;2023-12-20T11:42:45;6.30;99.90
20528;DHT22;23612;50.894;10.700;2023-12-20T11:45:19;6.40;99.90
20528;DHT22;23612;50.894;10.700;2023-12-20T11:47:48;6.20;99.90
20528;DHT22;23612;50.894;10.700;2023-12-20T11:50:15;6.10;99.90
20528;DHT22;23612;50.894;10.700;2023-12-20T11:52:41;6.00;99.90
20528;DHT22;23612;50.894;10.700;2023-12-20T11:55:06;5.90;99.90
20528;DHT22;23612;50.894;10.700;2023-12-20T11:57:33;5.90;99.90
20528;DHT22;23612;50.894;10.700;2023-12-20T11:59:58;5.80;99.90
20528;DHT22;23612;50.894;10.700;2023-12-20T12:02:24;5.80;99.90
20528;DHT22;23612;50.894;10.700;2023-12-20T12:04:50;5.70;99.90
20528;DHT22;23612;50.894;10.700;2023-12-20T12:07:16;5.80;99.90
20528;DHT22;23612;50.894;10.700;2023-12-20T12:09:42;5.80;99.90
20528;DHT22;23612;50.894;10.700;2023-12-20T12:12:08;5.80;99.90
20528;DHT22;23612;50.894;10.700;2023-12-20T12:14:34;6.00;99.90
20528;DHT22;23612;50.894;10.700;2023-12-20T12:17:02;6.20;99.90
20528;DHT22;23612;50.894;10.700;2023-12-20T12:19:28;6.30;99.90
20528;DHT22;23612;50.894;10.700;2023-12-20T12:22:07;6.50;99.90
20528;DHT22;23612;50.894;10.700;2023-12-20T12:24:35;6.70;99.90
20528;DHT22;23612;50.894;10.700;2023-12-20T12:27:01;6.80;99.90
20528;DHT22;23612;50.894;10.700;2023-12-20T12:29:27;6.90;99.90
20528;DHT22;23612;50.894;10.700;2023-12-20T12:31:53;6.90;99.90
20528;DHT22;23612;50.894;10.700;2023-12-20T12:34:18;7.00;99.90
20528;DHT22;23612;50.894;10.700;2023-12-20T12:36:44;7.10;99.90
20528;DHT22;23612;50.894;10.700;2023-12-20T12:39:14;7.30;99.90
20528;DHT22;23612;50.894;10.700;2023-12-20T12:41:43;7.50;99.90
20528;DHT22;23612;50.894;10.700;2023-12-20T12:44:08;7.80;99.90
20528;DHT22;23612;50.894;10.700;2023-12-20T12:46:34;7.90;99.90
20528;DHT22;23612;50.894;10.700;2023-12-20T12:48:59;7.60;99.90
20528;DHT22;23612;50.894;10.700;2023-12-20T12:51:25;7.20;99.90
20528;DHT22;23612;50.894;10.700;2023-12-20T12:53:50;6.90;99.90
20528;DHT22;23612;50.894;10.700;2023-12-20T12:56:16;6.60;99.90
20528;DHT22;23612;50.894;10.700;2023-12-20T12:58:42;6.40;99.90
20528;DHT22;23612;50.894;10.700;2023-12-20T13:01:08;6.30;99.90
20528;DHT22;23612;50.894;10.700;2023-12-20T13:03:34;6.20;99.90
20528;DHT22;23612;50.894;10.700;2023-12-20T13:06:00;6.20;99.90
20528;DHT22;23612;50.894;10.700;2023-12-20T13:08:25;6.20;99.90
20528;DHT22;23612;50.894;10.700;2023-12-20T13:10:51;6.50;99.90
20528;DHT22;23612;50.894;10.700;2023-12-20T13:13:16;6.60;99.90
20528;DHT22;23612;50.894;10.700;2023-12-20T13:15:42;7.10;99.90
20528;DHT22;23612;50.894;10.700;2023-12-20T13:18:07;7.20;99.90
20528;DHT22;23612;50.894;10.700;2023-12-20T13:20:33;7.10;99.90
20528;DHT22;23612;50.894;10.700;2023-12-20T13:22:59;7.10;99.90
20528;DHT22;23612;50.894;10.700;2023-12-20T13:25:24;7.10;99.90
20528;DHT22;23612;50.894;10.700;2023-12-20T13:27:50;7.20;99.90
20528;DHT22;23612;50.894;10.700;2023-12-20T13:30:16;7.30;99.90
20528;DHT22;23612;50.894;10.700;2023-12-20T13:32:42;7.30;99.90
20528;DHT22;23612;50.894;10.700;2023-12-20T13:35:08;7.00;99.90
20528;DHT22;23612;50.894;10.700;2023-12-20T13:37:34;6.90;99.90
20528;DHT22;23612;50.894;10.700;2023-12-20T13:39:59;6.80;99.90
20528;DHT22;23612;50.894;10.700;2023-12-20T13:42:25;6.80;99.90
20528;DHT22;23612;50.894;10.700;2023-12-20T13:44:53;7.20;99.90
20528;DHT22;23612;50.894;10.700;2023-12-20T13:47:18;7.50;99.90
20528;DHT22;23612;50.894;10.700;2023-12-20T13:49:44;7.10;99.90
20528;DHT22;23612;50.894;10.700;2023-12-20T13:52:10;6.70;99.90
20528;DHT22;23612;50.894;10.700;2023-12-20T13:54:37;6.30;99.90
20528;DHT22;23612;50.894;10.700;2023-12-20T13:57:02;6.10;99.90
20528;DHT22;23612;50.894;10.700;2023-12-20T13:59:28;5.90;99.90
20528;DHT22;23612;50.894;10.700;2023-12-20T14:01:54;5.80;99.90
20528;DHT22;23612;50.894;10.700;2023-12-20T14:04:20;5.70;99.90
20528;DHT22;23612;50.894;10.700;2023-12-20T14:06:47;5.70;99.90
20528;DHT22;23612;50.894;10.700;2023-12-20T14:09:12;5.60;99.90
20528;DHT22;23612;50.894;10.700;2023-12-20T14:11:38;5.60;99.90
20528;DHT22;23612;50.894;10.700;2023-12-20T14:14:07;5.60;99.90
20528;DHT22;23612;50.894;10.700;2023-12-20T14:16:33;5.60;99.90
20528;DHT22;23612;50.894;10.700;2023-12-20T14:18:59;5.60;99.90
20528;DHT22;23612;50.894;10.700;2023-12-20T14:21:24;5.50;99.90
20528;DHT22;23612;50.894;10.700;2023-12-20T14:23:50;5.50;99.90
20528;DHT22;23612;50.894;10.700;2023-12-20T14:26:15;5.40;99.90
20528;DHT22;23612;50.894;10.700;2023-12-20T14:28:41;5.30;99.90
20528;DHT22;23612;50.894;10.700;2023-12-20T14:31:07;5.30;99.90
20528;DHT22;23612;50.894;10.700;2023-12-20T14:33:35;5.30;99.90
20528;DHT22;23612;50.894;10.700;2023-12-20T14:36:01;5.30;99.90
20528;DHT22;23612;50.894;10.700;2023-12-20T14:38:27;5.20;99.90
20528;DHT22;23612;50.894;10.700;2023-12-20T14:40:53;5.20;99.90
20528;DHT22;23612;50.894;10.700;2023-12-20T14:43:18;5.20;99.90
20528;DHT22;23612;50.894;10.700;2023-12-20T14:45:44;5.10;99.90
20528;DHT22;23612;50.894;10.700;2023-12-20T14:48:10;5.10;99.90
20528;DHT22;23612;50.894;10.700;2023-12-20T14:50:35;5.10;99.90
20528;DHT22;23612;50.894;10.700;2023-12-20T14:53:01;5.10;99.90
20528;DHT22;23612;50.894;10.700;2023-12-20T14:55:27;5.10;99.90
20528;DHT22;23612;50.894;10.700;2023-12-20T14:57:54;5.10;99.90
20528;DHT22;23612;50.894;10.700;2023-12-20T15:00:20;5.20;99.90
20528;DHT22;23612;50.894;10.700;2023-12-20T15:02:46;5.10;99.90
20528;DHT22;23612;50.894;10.700;2023-12-20T15:05:11;5.10;99.90
20528;DHT22;23612;50.894;10.700;2023-12-20T15:07:36;5.10;99.90
20528;DHT22;23612;50.894;10.700;2023-12-20T15:10:03;5.20;99.90
20528;DHT22;23612;50.894;10.700;2023-12-20T15:12:28;5.20;99.90
20528;DHT22;23612;50.894;10.700;2023-12-20T15:14:54;5.20;99.90
20528;DHT22;23612;50.894;10.700;2023-12-20T15:17:19;5.30;99.90
20528;DHT22;23612;50.894;10.700;2023-12-20T15:19:45;5.30;99.90
20528;DHT22;23612;50.894;10.700;2023-12-20T15:22:10;5.30;99.90
20528;DHT22;23612;50.894;10.700;2023-12-20T15:24:39;5.30;99.90